Flight Track Log - Related Links

Times and Time Zones

All times are in EDT time to prevent confusion due to time zone crossing. See the AAY846 flight status page for this flight to view local times or setup timezone preferences in your user account.

Time Position Orientation Groundspeed Altitude Reporting Facility
EDT Latitude Longitude Course Direction KTS MPH feet Rate Location/Type
Sat 08:12:22 AM 27.9000 -82.6833 180° South 156 180 600  Level Tampa TRACON
Sat 08:13:16 AM 27.8500 -82.6833 180° South 200 230 2,300 2,211 Climbing Tampa TRACON
Sat 08:14:16 AM 27.8333 -82.7167 241° Southwest 221 254 4,800 2,143 Climbing Tampa TRACON
Sat 08:15:22 AM 27.8833 -82.7667 319° Northwest 259 298 6,800 1,850 Climbing Tampa TRACON
Sat 08:17:50 AM 28.0561 -82.8386 340° North 280 322 11,400 1,702 Climbing Jacksonville Center
Sat 08:18:50 AM 28.1603 -82.8197 North 319 367 12,700 1,900 Climbing Jacksonville Center
Sat 08:19:50 AM 28.2731 -82.7983 North 373 429 15,200 2,250 Climbing Jacksonville Center
Sat 08:20:50 AM 28.3836 -82.8172 351° North 388 447 17,200 1,950 Climbing Jacksonville Center
Sat 08:21:50 AM 28.4881 -82.8689 337° Northwest 388 447 19,100 1,750 Climbing Jacksonville Center
Sat 08:22:50 AM 28.5986 -82.9139 340° North 406 467 20,700 2,233 Climbing Jacksonville Center
Sat 08:24:50 AM 28.8008 -83.0419 331° Northwest 400 460 25,800 2,067 Climbing Jacksonville Center
Sat 08:25:50 AM 28.8906 -83.1036 329° Northwest 383 441 26,900 1,250 Climbing Jacksonville Center
Sat 08:26:50 AM 28.9803 -83.1725 326° Northwest 378 435 28,300 1,400 Climbing Jacksonville Center
Sat 08:27:50 AM 29.0697 -83.2369 328° Northwest 378 435 29,700 1,150 Climbing Jacksonville Center
Sat 08:28:50 AM 29.1572 -83.3039 326° Northwest 378 435 30,600 800 Climbing Jacksonville Center
Sat 08:29:50 AM 29.2447 -83.3708 326° Northwest 378 435 31,300 650 Climbing Jacksonville Center
Sat 08:30:50 AM 29.3322 -83.4428 324° Northwest 378 435 31,900 350 Climbing Jacksonville Center
Sat 08:31:50 AM 29.4258 -83.5078 329° Northwest 383 441 32,000 50 Climbing Jacksonville Center
Sat 08:32:50 AM 29.5028 -83.5703 325° Northwest 388 447 32,000  Level Jacksonville Center
Sat 08:33:50 AM 29.5919 -83.6378 327° Northwest 383 441 32,000  Level Jacksonville Center
Sat 08:34:50 AM 29.6794 -83.7031 327° Northwest 383 441 32,000  Level Jacksonville Center
Sat 08:35:50 AM 29.7686 -83.7706 327° Northwest 383 441 32,000  Level Jacksonville Center
Sat 08:36:50 AM 29.8539 -83.8361 326° Northwest 378 435 32,000  Level Jacksonville Center
Sat 08:37:50 AM 29.9431 -83.9017 328° Northwest 378 435 32,000  Level Jacksonville Center
Sat 08:38:50 AM 30.0281 -83.9675 326° Northwest 378 435 32,000  Level Jacksonville Center
Sat 08:39:50 AM 30.1153 -84.0331 327° Northwest 372 428 32,000  Level Jacksonville Center
Sat 08:40:50 AM 30.1981 -84.0992 325° Northwest 372 428 32,000  Level Jacksonville Center
Sat 08:41:50 AM 30.2853 -84.1650 327° Northwest 372 428 32,000  Level Jacksonville Center
Sat 08:42:50 AM 30.3703 -84.2311 326° Northwest 372 428 32,000  Level Jacksonville Center
Sat 08:43:50 AM 30.4550 -84.2950 327° Northwest 372 428 32,000  Level Jacksonville Center
Sat 08:44:50 AM 30.5358 -84.3614 325° Northwest 366 421 32,000  Level Jacksonville Center
Sat 08:45:50 AM 30.6378 -84.3944 344° North 366 421 32,000  Level Jacksonville Center
Sat 08:46:50 AM 30.7375 -84.4344 341° North 371 427 32,000  Level Jacksonville Center
Sat 08:47:50 AM 30.8414 -84.4678 345° North 377 434 32,000  Level Jacksonville Center
Sat 08:48:50 AM 30.9536 -84.5083 343° North 377 434 32,000  Level Jacksonville Center
Sat 08:49:50 AM 31.0575 -84.5392 346° North 377 434 32,000  Level Jacksonville Center
Sat 08:50:50 AM 31.1614 -84.5775 342° North 377 434 32,000  Level Jacksonville Center
Sat 08:51:50 AM 31.2656 -84.6061 347° North 377 434 32,000  Level Jacksonville Center
Sat 08:53:58 AM 31.4758 -84.6769 344° North 380 437 32,000  Level Atlanta Center
Sat 08:54:58 AM 31.5778 -84.7142 343° North 380 437 32,000  Level Atlanta Center
Sat 08:55:58 AM 31.6842 -84.7442 347° North 380 437 32,000  Level Atlanta Center
Sat 08:56:58 AM 31.7819 -84.7817 342° North 380 437 32,000  Level Atlanta Center
Sat 08:57:58 AM 31.8842 -84.8117 346° North 380 437 32,000  Level Atlanta Center
Sat 08:58:58 AM 31.9819 -84.8494 342° North 368 423 32,000  Level Atlanta Center
Sat 08:59:58 AM 32.0819 -84.8772 347° North 363 418 32,000  Level Atlanta Center
Sat 09:00:58 AM 32.1778 -84.9150 342° North 363 418 32,000  Level Atlanta Center
Sat 09:01:58 AM 32.2858 -84.9456 347° North 363 418 32,000  Level Atlanta Center
Sat 09:02:58 AM 32.3817 -84.9783 344° North 356 410 32,000  Level Atlanta Center
Sat 09:03:58 AM 32.4858 -85.0139 344° North 361 415 32,000  Level Atlanta Center
Sat 09:04:58 AM 32.5858 -85.0472 344° North 372 428 32,000  Level Atlanta Center
Sat 09:05:58 AM 32.6814 -85.0803 344° North 379 436 32,000  Level Atlanta Center
Sat 09:06:58 AM 32.7753 -85.1086 346° North 347 399 32,000  Level Atlanta Center
Sat 09:07:58 AM 32.8811 -85.1569 339° North 377 434 32,000  Level Atlanta Center
Sat 09:08:58 AM 32.9811 -85.1828 348° North 371 427 32,000  Level Atlanta Center
Sat 09:09:58 AM 33.0831 -85.2264 340° North 380 437 32,000  Level Atlanta Center
Sat 09:10:58 AM 33.1767 -85.2697 339° North 370 426 32,000  Level Atlanta Center
Sat 09:11:58 AM 33.2806 -85.3161 340° North 370 426 32,000  Level Atlanta Center
Sat 09:12:58 AM 33.3758 -85.3647 337° Northwest 370 426 32,000  Level Atlanta Center
Sat 09:13:58 AM 33.4736 -85.4036 342° North 368 423 32,000  Level Atlanta Center
Sat 09:14:58 AM 33.5650 -85.4522 336° Northwest 368 423 32,000  Level Atlanta Center
Sat 09:15:58 AM 33.6647 -85.4939 341° North 368 423 32,000  Level Atlanta Center
Sat 09:16:58 AM 33.7581 -85.5406 337° Northwest 368 423 32,000  Level Atlanta Center
Sat 09:17:58 AM 33.8597 -85.5822 341° North 368 423 32,000  Level Atlanta Center
Sat 09:18:58 AM 33.9550 -85.6317 337° Northwest 368 423 32,000  Level Atlanta Center
Sat 09:19:58 AM 34.0444 -85.6683 341° North 373 429 32,000  Level Atlanta Center
Sat 09:20:58 AM 34.1397 -85.7178 337° Northwest 368 423 32,000  Level Atlanta Center
Sat 09:21:58 AM 34.2392 -85.7625 340° North 373 429 32,000  Level Atlanta Center
Sat 09:22:58 AM 34.3389 -85.8125 338° Northwest 379 436 32,000  Level Atlanta Center
Sat 09:23:58 AM 34.4444 -85.8575 341° North 373 429 32,000  Level Atlanta Center
Sat 09:24:58 AM 34.5439 -85.9075 338° Northwest 373 429 32,000  Level Atlanta Center
Sat 09:25:58 AM 34.6475 -85.9528 340° North 378 435 32,000  Level Atlanta Center
Sat 09:26:58 AM 34.7450 -86.0056 336° Northwest 378 435 32,000  Level Atlanta Center
Sat 09:27:58 AM 34.8506 -86.0511 340° North 385 443 32,000  Level Atlanta Center
Sat 09:28:58 AM 34.9417 -86.0986 337° Northwest 390 449 32,000  Level Atlanta Center
Sat 09:29:58 AM 35.0431 -86.1469 339° North 395 455 32,000  Level Atlanta Center
Sat 09:31:30 AM 35.1972 -86.2231 338° Northwest 399 459 32,000  Level Memphis Center
Sat 09:32:32 AM 35.3208 -86.2814 339° North 404 465 32,000  Level Memphis Center
Sat 09:33:34 AM 35.4228 -86.3342 337° Northwest 400 460 32,000 97 Level Memphis Center
Sat 09:34:36 AM 35.5278 -86.3853 338° Northwest 398 458 32,200 927 Climbing Memphis Center
Sat 09:35:37 AM 35.6344 -86.4358 339° North 405 466 33,900 878 Climbing Memphis Center
Sat 09:36:39 AM 35.7336 -86.4825 339° North 386 444 34,000 48 Climbing Memphis Center
Sat 09:37:41 AM 35.8306 -86.5353 336° Northwest 377 434 34,000  Level Memphis Center
Sat 09:38:43 AM 35.9306 -86.5822 339° North 379 436 34,000  Level Memphis Center
Sat 09:40:43 AM 36.1306 -86.6797 339° North 384 442 34,000  Level Indianapolis Center
Sat 09:41:45 AM 36.2231 -86.7408 332° Northwest 375 432 34,000  Level Indianapolis Center
Sat 09:42:47 AM 36.3303 -86.7947 338° Northwest 377 434 34,000  Level Indianapolis Center
Sat 09:43:49 AM 36.4217 -86.8533 333° Northwest 376 433 34,000  Level Indianapolis Center
Sat 09:44:51 AM 36.5194 -86.9067 336° Northwest 376 433 34,000  Level Indianapolis Center
Sat 09:45:53 AM 36.6081 -86.9675 331° Northwest 366 421 34,000  Level Indianapolis Center
Sat 09:46:58 AM 36.7225 -87.0278 337° Northwest 376 433 34,000  Level Memphis Center
Sat 09:48:00 AM 36.8150 -87.0900 332° Northwest 376 433 34,000  Level Memphis Center
Sat 09:49:02 AM 36.9133 -87.1439 336° Northwest 377 434 34,000  Level Memphis Center
Sat 09:50:45 AM 37.0806 -87.2428 335° Northwest 380 437 34,000  Level Kansas City Center
Sat 09:51:46 AM 37.1747 -87.3050 332° Northwest 380 437 34,000  Level Kansas City Center
Sat 09:52:47 AM 37.2728 -87.3567 337° Northwest 379 436 34,000  Level Kansas City Center
Sat 09:53:50 AM 37.3667 -87.4183 332° Northwest 380 437 34,000  Level Kansas City Center
Sat 09:54:50 AM 37.4639 -87.4756 335° Northwest 380 437 34,000  Level Kansas City Center
Sat 09:55:54 AM 37.5594 -87.5375 333° Northwest 380 437 34,000  Level Kansas City Center
Sat 09:56:55 AM 37.6569 -87.5917 336° Northwest 380 437 34,000  Level Kansas City Center
Sat 09:57:57 AM 37.7511 -87.6553 332° Northwest 380 437 34,000  Level Kansas City Center
Sat 09:58:58 AM 37.8556 -87.6986 342° North 393 452 34,000 -146 Level Kansas City Center
Sat 10:00:00 AM 37.9814 -87.7503 342° North 392 451 33,700 -639 Descending Kansas City Center
Sat 10:01:00 AM 38.0911 -87.7911 344° North 400 460 32,700 -919 Descending Kansas City Center
Sat 10:02:04 AM 38.1961 -87.8392 340° North 400 460 31,800 -960 Descending Kansas City Center
Sat 10:03:05 AM 38.2978 -87.8961 336° Northwest 398 458 30,700 -976 Descending Kansas City Center
Sat 10:04:07 AM 38.3867 -87.9761 325° Northwest 387 445 29,800 -976 Descending Kansas City Center
Sat 10:05:08 AM 38.4853 -88.0406 333° Northwest 388 447 28,700 -885 Descending Kansas City Center
Sat 10:06:09 AM 38.5789 -88.1031 332° Northwest 385 443 28,000 -344 Descending Kansas City Center
Sat 10:07:10 AM 38.6678 -88.1717 329° Northwest 373 429 28,000  Level Kansas City Center
Sat 10:08:14 AM 38.7592 -88.2364 331° Northwest 373 429 28,000  Level Kansas City Center
Sat 10:09:14 AM 38.8486 -88.3047 329° Northwest 373 429 28,000  Level Kansas City Center
Sat 10:10:16 AM 38.9389 -88.3675 332° Northwest 372 428 28,000 -146 Level Kansas City Center
Sat 10:11:17 AM 39.0250 -88.4361 328° Northwest 370 426 27,700 -634 Descending Kansas City Center
Sat 10:12:19 AM 39.1294 -88.5136 330° Northwest 363 418 26,700 -878 Descending Kansas City Center
Sat 10:13:20 AM 39.2169 -88.5789 330° Northwest 363 418 25,900 -780 Descending Kansas City Center
Sat 10:14:22 AM 39.2989 -88.6389 330° Northwest 359 413 25,100 -774 Descending Kansas City Center
Sat 10:15:24 AM 39.3803 -88.7022 329° Northwest 349 402 24,300 -780 Descending Kansas City Center
Sat 10:16:25 AM 39.4678 -88.7672 330° Northwest 348 400 23,500 -836 Descending Kansas City Center
Sat 10:17:26 AM 39.5464 -88.8278 329° Northwest 335 386 22,600 -1,033 Descending Kansas City Center
Sat 10:18:27 AM 39.6250 -88.8844 331° Northwest 328 377 21,400 -1,306 Descending Kansas City Center
Sat 10:19:30 AM 39.7006 -88.9461 328° Northwest 324 373 19,900 -1,524 Descending Kansas City Center
Sat 10:20:33 AM 39.7814 -89.0039 331° Northwest 330 380 18,200 -1,742 Descending Kansas City Center
Sat 10:21:34 AM 39.8700 -89.0736 329° Northwest 314 361 16,300 -1,820 Descending Kansas City Center
Sat 10:22:35 AM 39.9386 -89.1267 329° Northwest 296 341 14,500 -2,016 Descending Kansas City Center
Sat 10:23:36 AM 40.0078 -89.1789 330° Northwest 290 334 12,200 -1,707 Descending Kansas City Center
Sat 10:24:38 AM 40.0753 -89.2350 328° Northwest 290 334 11,000 -600 Descending Kansas City Center
Sat 10:25:36 AM 40.1381 -89.2803 331° Northwest 267 307 11,000  Level Chicago Center
Sat 10:26:38 AM 40.2006 -89.3281 330° Northwest 260 299 11,000 -537 Level Chicago Center
Sat 10:27:39 AM 40.2639 -89.3722 332° Northwest 260 299 9,900 -1,317 Descending Chicago Center
Sat 10:28:41 AM 40.3264 -89.4228 328° Northwest 260 299 8,300 -1,597 Descending Chicago Center
Sat 10:29:43 AM 40.3903 -89.4631 334° Northwest 259 298 6,600 -1,756 Descending Chicago Center
Sat 10:30:44 AM 40.4661 -89.5100 335° Northwest 255 293 4,700 -1,362 Descending Chicago Center
Sat 10:32:48 AM 40.5833 -89.5756 337° Northwest 231 266 2,400 -839 Descending Chicago Center
Sat 10:33:50 AM 40.6169 -89.6136 319° Northwest 193 222 2,100 -537 Descending Chicago Center
Sat 10:34:51 AM 40.6386 -89.6519 307° West 156 180 1,300 -732 Descending Chicago Center
Sat 10:35:53 AM 40.6594 -89.6878 307° West 137 158 600 -677 Descending Chicago Center

Login

Don't have an account? Register now (free) for customized features, flight alerts, and more!